sensor_id;sensor_type;location;lat;lon;timestamp;temperature;humidity
12604;DHT22;6367;52.508;13.284;2022-08-18T00:01:23;28.50;78.50
12604;DHT22;6367;52.508;13.284;2022-08-18T00:03:50;28.40;78.60
12604;DHT22;6367;52.508;13.284;2022-08-18T00:06:16;28.30;78.70
12604;DHT22;6367;52.508;13.284;2022-08-18T00:08:42;28.40;78.20
12604;DHT22;6367;52.508;13.284;2022-08-18T00:11:08;28.40;78.40
12604;DHT22;6367;52.508;13.284;2022-08-18T00:13:34;28.30;78.80
12604;DHT22;6367;52.508;13.284;2022-08-18T00:16:00;28.20;78.80
12604;DHT22;6367;52.508;13.284;2022-08-18T00:18:25;28.30;78.90
12604;DHT22;6367;52.508;13.284;2022-08-18T00:20:51;28.30;79.00
12604;DHT22;6367;52.508;13.284;2022-08-18T00:23:17;28.30;78.70
12604;DHT22;6367;52.508;13.284;2022-08-18T00:25:43;28.30;79.00
12604;DHT22;6367;52.508;13.284;2022-08-18T00:28:10;28.30;79.00
12604;DHT22;6367;52.508;13.284;2022-08-18T00:30:36;28.20;79.20
12604;DHT22;6367;52.508;13.284;2022-08-18T00:33:02;28.20;78.80
12604;DHT22;6367;52.508;13.284;2022-08-18T00:35:34;28.20;79.00
12604;DHT22;6367;52.508;13.284;2022-08-18T00:38:02;28.20;79.30
12604;DHT22;6367;52.508;13.284;2022-08-18T00:40:37;28.20;79.40
12604;DHT22;6367;52.508;13.284;2022-08-18T00:43:05;28.20;79.10
12604;DHT22;6367;52.508;13.284;2022-08-18T00:45:35;28.20;79.00
12604;DHT22;6367;52.508;13.284;2022-08-18T00:48:03;28.10;79.30
12604;DHT22;6367;52.508;13.284;2022-08-18T00:50:39;28.10;79.60
12604;DHT22;6367;52.508;13.284;2022-08-18T00:53:20;28.00;79.70
12604;DHT22;6367;52.508;13.284;2022-08-18T00:55:47;28.00;79.80
12604;DHT22;6367;52.508;13.284;2022-08-18T00:58:30;28.00;79.80
12604;DHT22;6367;52.508;13.284;2022-08-18T01:00:59;27.90;79.70
12604;DHT22;6367;52.508;13.284;2022-08-18T01:03:27;28.10;79.30
12604;DHT22;6367;52.508;13.284;2022-08-18T01:06:14;28.00;79.30
12604;DHT22;6367;52.508;13.284;2022-08-18T01:08:40;27.90;79.50
12604;DHT22;6367;52.508;13.284;2022-08-18T01:11:07;27.90;79.30
12604;DHT22;6367;52.508;13.284;2022-08-18T01:13:35;28.00;79.20
12604;DHT22;6367;52.508;13.284;2022-08-18T01:16:03;27.90;79.30
12604;DHT22;6367;52.508;13.284;2022-08-18T01:18:49;28.10;79.00
12604;DHT22;6367;52.508;13.284;2022-08-18T01:21:37;28.00;78.80
12604;DHT22;6367;52.508;13.284;2022-08-18T01:24:19;27.90;79.20
12604;DHT22;6367;52.508;13.284;2022-08-18T01:26:46;27.90;79.40
12604;DHT22;6367;52.508;13.284;2022-08-18T01:29:17;27.90;79.10
12604;DHT22;6367;52.508;13.284;2022-08-18T01:31:47;27.90;78.90
12604;DHT22;6367;52.508;13.284;2022-08-18T01:34:15;27.40;78.70
12604;DHT22;6367;52.508;13.284;2022-08-18T01:36:42;27.80;78.90
12604;DHT22;6367;52.508;13.284;2022-08-18T01:39:11;27.80;79.80
12604;DHT22;6367;52.508;13.284;2022-08-18T01:41:39;27.80;79.00
12604;DHT22;6367;52.508;13.284;2022-08-18T01:44:05;27.90;78.30
12604;DHT22;6367;52.508;13.284;2022-08-18T01:46:38;27.80;78.20
12604;DHT22;6367;52.508;13.284;2022-08-18T01:49:06;27.80;78.10
12604;DHT22;6367;52.508;13.284;2022-08-18T01:51:33;27.80;78.30
12604;DHT22;6367;52.508;13.284;2022-08-18T01:53:59;27.90;77.90
12604;DHT22;6367;52.508;13.284;2022-08-18T01:56:25;27.90;77.80
12604;DHT22;6367;52.508;13.284;2022-08-18T01:58:53;27.90;77.30
12604;DHT22;6367;52.508;13.284;2022-08-18T02:01:19;27.90;77.10
12604;DHT22;6367;52.508;13.284;2022-08-18T02:03:49;27.80;77.20
12604;DHT22;6367;52.508;13.284;2022-08-18T02:06:16;27.90;77.00
12604;DHT22;6367;52.508;13.284;2022-08-18T02:08:44;27.90;77.00
12604;DHT22;6367;52.508;13.284;2022-08-18T02:11:10;27.80;77.00
12604;DHT22;6367;52.508;13.284;2022-08-18T02:13:36;27.80;77.20
12604;DHT22;6367;52.508;13.284;2022-08-18T02:16:02;27.70;76.90
12604;DHT22;6367;52.508;13.284;2022-08-18T02:18:32;27.70;77.00
12604;DHT22;6367;52.508;13.284;2022-08-18T02:21:06;27.80;76.90
12604;DHT22;6367;52.508;13.284;2022-08-18T02:23:32;27.70;77.00
12604;DHT22;6367;52.508;13.284;2022-08-18T02:25:58;27.70;77.10
12604;DHT22;6367;52.508;13.284;2022-08-18T02:28:23;27.80;77.20
12604;DHT22;6367;52.508;13.284;2022-08-18T02:30:49;27.70;77.30
12604;DHT22;6367;52.508;13.284;2022-08-18T02:33:14;27.70;77.40
12604;DHT22;6367;52.508;13.284;2022-08-18T02:35:40;27.70;77.40
12604;DHT22;6367;52.508;13.284;2022-08-18T02:38:08;27.60;77.30
12604;DHT22;6367;52.508;13.284;2022-08-18T02:40:34;27.60;77.30
12604;DHT22;6367;52.508;13.284;2022-08-18T02:43:09;27.60;77.30
12604;DHT22;6367;52.508;13.284;2022-08-18T02:45:38;27.50;77.50
12604;DHT22;6367;52.508;13.284;2022-08-18T02:48:05;27.50;77.40
12604;DHT22;6367;52.508;13.284;2022-08-18T02:50:31;27.40;77.60
12604;DHT22;6367;52.508;13.284;2022-08-18T02:52:56;27.40;77.90
12604;DHT22;6367;52.508;13.284;2022-08-18T02:55:22;27.30;78.00
12604;DHT22;6367;52.508;13.284;2022-08-18T02:57:51;27.30;78.20
12604;DHT22;6367;52.508;13.284;2022-08-18T03:00:18;27.30;78.30
12604;DHT22;6367;52.508;13.284;2022-08-18T03:02:45;27.40;79.00
12604;DHT22;6367;52.508;13.284;2022-08-18T03:05:11;27.40;78.30
12604;DHT22;6367;52.508;13.284;2022-08-18T03:07:37;27.40;78.40
12604;DHT22;6367;52.508;13.284;2022-08-18T03:10:02;27.40;78.60
12604;DHT22;6367;52.508;13.284;2022-08-18T03:12:28;27.30;78.60
12604;DHT22;6367;52.508;13.284;2022-08-18T03:14:53;27.30;78.70
12604;DHT22;6367;52.508;13.284;2022-08-18T03:17:19;27.30;78.80
12604;DHT22;6367;52.508;13.284;2022-08-18T03:19:45;27.80;79.40
12604;DHT22;6367;52.508;13.284;2022-08-18T03:22:10;27.70;79.50
12604;DHT22;6367;52.508;13.284;2022-08-18T03:24:36;27.20;79.20
12604;DHT22;6367;52.508;13.284;2022-08-18T03:27:06;27.20;79.20
12604;DHT22;6367;52.508;13.284;2022-08-18T03:29:33;27.20;79.20
12604;DHT22;6367;52.508;13.284;2022-08-18T03:32:04;27.20;79.10
12604;DHT22;6367;52.508;13.284;2022-08-18T03:34:31;27.20;79.20
12604;DHT22;6367;52.508;13.284;2022-08-18T03:36:57;27.20;79.30
12604;DHT22;6367;52.508;13.284;2022-08-18T03:39:23;27.30;79.10
12604;DHT22;6367;52.508;13.284;2022-08-18T03:41:50;27.20;79.40
12604;DHT22;6367;52.508;13.284;2022-08-18T03:44:20;27.10;79.60
12604;DHT22;6367;52.508;13.284;2022-08-18T03:46:46;27.10;79.70
12604;DHT22;6367;52.508;13.284;2022-08-18T03:49:12;27.10;79.70
12604;DHT22;6367;52.508;13.284;2022-08-18T03:51:40;27.10;79.70
12604;DHT22;6367;52.508;13.284;2022-08-18T03:54:08;27.10;79.70
12604;DHT22;6367;52.508;13.284;2022-08-18T03:56:36;27.10;79.80
12604;DHT22;6367;52.508;13.284;2022-08-18T03:59:06;27.00;79.80
12604;DHT22;6367;52.508;13.284;2022-08-18T04:01:37;27.00;79.90
12604;DHT22;6367;52.508;13.284;2022-08-18T04:04:05;27.00;79.90
12604;DHT22;6367;52.508;13.284;2022-08-18T04:06:37;27.00;80.10
12604;DHT22;6367;52.508;13.284;2022-08-18T04:09:05;27.00;80.30
12604;DHT22;6367;52.508;13.284;2022-08-18T04:11:34;26.90;80.30
12604;DHT22;6367;52.508;13.284;2022-08-18T04:14:00;27.00;80.20
12604;DHT22;6367;52.508;13.284;2022-08-18T04:16:28;27.00;80.30
12604;DHT22;6367;52.508;13.284;2022-08-18T04:18:54;27.00;80.30
12604;DHT22;6367;52.508;13.284;2022-08-18T04:21:24;27.00;80.40
12604;DHT22;6367;52.508;13.284;2022-08-18T04:23:49;26.90;80.30
12604;DHT22;6367;52.508;13.284;2022-08-18T04:26:15;27.00;80.10
12604;DHT22;6367;52.508;13.284;2022-08-18T04:28:42;26.90;80.20
12604;DHT22;6367;52.508;13.284;2022-08-18T04:31:11;26.90;80.20
12604;DHT22;6367;52.508;13.284;2022-08-18T04:33:38;26.80;80.50
12604;DHT22;6367;52.508;13.284;2022-08-18T04:36:13;26.80;80.50
12604;DHT22;6367;52.508;13.284;2022-08-18T04:38:39;26.80;80.40
12604;DHT22;6367;52.508;13.284;2022-08-18T04:41:13;26.70;80.30
12604;DHT22;6367;52.508;13.284;2022-08-18T04:43:39;26.80;80.50
12604;DHT22;6367;52.508;13.284;2022-08-18T04:46:05;26.70;80.40
12604;DHT22;6367;52.508;13.284;2022-08-18T04:48:37;26.70;80.20
12604;DHT22;6367;52.508;13.284;2022-08-18T04:51:06;26.70;80.20
12604;DHT22;6367;52.508;13.284;2022-08-18T04:53:32;26.70;80.30
12604;DHT22;6367;52.508;13.284;2022-08-18T04:56:21;26.70;80.50
12604;DHT22;6367;52.508;13.284;2022-08-18T04:59:07;26.70;80.40
12604;DHT22;6367;52.508;13.284;2022-08-18T05:01:36;26.70;80.30
12604;DHT22;6367;52.508;13.284;2022-08-18T05:04:03;26.80;80.20
12604;DHT22;6367;52.508;13.284;2022-08-18T05:06:29;26.80;80.30
12604;DHT22;6367;52.508;13.284;2022-08-18T05:08:58;26.80;80.40
12604;DHT22;6367;52.508;13.284;2022-08-18T05:11:26;26.80;80.30
12604;DHT22;6367;52.508;13.284;2022-08-18T05:13:57;26.80;80.30
12604;DHT22;6367;52.508;13.284;2022-08-18T05:16:25;27.00;80.40
12604;DHT22;6367;52.508;13.284;2022-08-18T05:18:51;26.90;80.30
12604;DHT22;6367;52.508;13.284;2022-08-18T05:21:18;26.80;80.30
12604;DHT22;6367;52.508;13.284;2022-08-18T05:23:46;26.90;80.30
12604;DHT22;6367;52.508;13.284;2022-08-18T05:26:13;26.90;80.20
12604;DHT22;6367;52.508;13.284;2022-08-18T05:28:41;26.90;80.10
12604;DHT22;6367;52.508;13.284;2022-08-18T05:31:16;27.00;80.00
12604;DHT22;6367;52.508;13.284;2022-08-18T05:33:42;27.00;80.00
12604;DHT22;6367;52.508;13.284;2022-08-18T05:39:02;27.00;80.10
12604;DHT22;6367;52.508;13.284;2022-08-18T05:41:41;27.10;80.80
12604;DHT22;6367;52.508;13.284;2022-08-18T05:44:13;27.10;79.30
12604;DHT22;6367;52.508;13.284;2022-08-18T05:49:45;27.10;79.40
12604;DHT22;6367;52.508;13.284;2022-08-18T05:52:50;27.20;79.50
12604;DHT22;6367;52.508;13.284;2022-08-18T05:55:27;27.20;79.50
12604;DHT22;6367;52.508;13.284;2022-08-18T05:58:22;27.30;79.40
12604;DHT22;6367;52.508;13.284;2022-08-18T06:00:54;27.10;79.00
12604;DHT22;6367;52.508;13.284;2022-08-18T06:03:25;27.30;78.90
12604;DHT22;6367;52.508;13.284;2022-08-18T06:05:55;27.60;78.80
12604;DHT22;6367;52.508;13.284;2022-08-18T06:08:41;27.70;78.30
12604;DHT22;6367;52.508;13.284;2022-08-18T06:11:07;27.80;78.10
12604;DHT22;6367;52.508;13.284;2022-08-18T06:13:41;27.90;78.00
12604;DHT22;6367;52.508;13.284;2022-08-18T06:16:34;27.90;78.00
12604;DHT22;6367;52.508;13.284;2022-08-18T06:25:16;28.20;77.50
12604;DHT22;6367;52.508;13.284;2022-08-18T06:27:54;28.20;77.50
12604;DHT22;6367;52.508;13.284;2022-08-18T06:30:57;28.80;77.50
12604;DHT22;6367;52.508;13.284;2022-08-18T06:33:40;28.30;77.00
12604;DHT22;6367;52.508;13.284;2022-08-18T06:41:38;28.40;76.70
12604;DHT22;6367;52.508;13.284;2022-08-18T06:44:09;28.40;76.80
12604;DHT22;6367;52.508;13.284;2022-08-18T06:49:08;28.30;76.90
12604;DHT22;6367;52.508;13.284;2022-08-18T06:51:35;28.40;76.90
12604;DHT22;6367;52.508;13.284;2022-08-18T06:56:49;28.40;76.80
12604;DHT22;6367;52.508;13.284;2022-08-18T06:59:25;28.40;76.90
12604;DHT22;6367;52.508;13.284;2022-08-18T07:04:41;28.30;77.00
12604;DHT22;6367;52.508;13.284;2022-08-18T07:07:23;28.30;76.80
12604;DHT22;6367;52.508;13.284;2022-08-18T07:09:53;28.30;76.50
12604;DHT22;6367;52.508;13.284;2022-08-18T07:12:22;28.40;76.50
12604;DHT22;6367;52.508;13.284;2022-08-18T07:14:55;28.40;76.50
12604;DHT22;6367;52.508;13.284;2022-08-18T07:17:30;28.40;76.40
12604;DHT22;6367;52.508;13.284;2022-08-18T07:20:16;28.30;76.30
12604;DHT22;6367;52.508;13.284;2022-08-18T07:22:56;28.40;76.30
12604;DHT22;6367;52.508;13.284;2022-08-18T07:25:44;28.40;75.40
12604;DHT22;6367;52.508;13.284;2022-08-18T07:30:53;28.40;75.30
12604;DHT22;6367;52.508;13.284;2022-08-18T07:33:31;28.90;75.60
12604;DHT22;6367;52.508;13.284;2022-08-18T07:36:00;28.40;75.30
12604;DHT22;6367;52.508;13.284;2022-08-18T07:38:40;28.50;75.50
12604;DHT22;6367;52.508;13.284;2022-08-18T07:41:14;28.50;75.10
12604;DHT22;6367;52.508;13.284;2022-08-18T07:46:40;28.60;74.80
12604;DHT22;6367;52.508;13.284;2022-08-18T07:49:15;28.70;74.70
12604;DHT22;6367;52.508;13.284;2022-08-18T07:51:49;28.80;74.60
12604;DHT22;6367;52.508;13.284;2022-08-18T07:57:08;28.80;75.00
12604;DHT22;6367;52.508;13.284;2022-08-18T08:05:16;28.80;75.10
12604;DHT22;6367;52.508;13.284;2022-08-18T08:07:58;28.80;75.40
12604;DHT22;6367;52.508;13.284;2022-08-18T08:13:21;29.10;75.20
12604;DHT22;6367;52.508;13.284;2022-08-18T08:16:32;29.10;74.90
12604;DHT22;6367;52.508;13.284;2022-08-18T08:18:45;29.30;74.90
12604;DHT22;6367;52.508;13.284;2022-08-18T08:21:17;29.30;75.10
12604;DHT22;6367;52.508;13.284;2022-08-18T08:23:54;29.30;75.20
12604;DHT22;6367;52.508;13.284;2022-08-18T08:26:56;29.40;75.10
12604;DHT22;6367;52.508;13.284;2022-08-18T08:32:10;29.50;74.90
12604;DHT22;6367;52.508;13.284;2022-08-18T08:34:54;29.50;74.90
12604;DHT22;6367;52.508;13.284;2022-08-18T08:37:43;29.70;74.70
12604;DHT22;6367;52.508;13.284;2022-08-18T08:40:37;29.70;74.40
12604;DHT22;6367;52.508;13.284;2022-08-18T08:43:12;29.80;73.90
12604;DHT22;6367;52.508;13.284;2022-08-18T08:46:14;29.80;73.80
12604;DHT22;6367;52.508;13.284;2022-08-18T08:48:49;29.90;74.10
12604;DHT22;6367;52.508;13.284;2022-08-18T08:51:41;30.00;73.60
12604;DHT22;6367;52.508;13.284;2022-08-18T08:54:20;29.90;74.10
12604;DHT22;6367;52.508;13.284;2022-08-18T08:56:50;30.00;74.60
12604;DHT22;6367;52.508;13.284;2022-08-18T08:59:19;29.90;75.20
12604;DHT22;6367;52.508;13.284;2022-08-18T09:20:48;30.40;74.80
12604;DHT22;6367;52.508;13.284;2022-08-18T09:23:21;30.50;74.80
12604;DHT22;6367;52.508;13.284;2022-08-18T09:25:54;30.60;75.20
12604;DHT22;6367;52.508;13.284;2022-08-18T09:33:55;31.10;73.90
12604;DHT22;6367;52.508;13.284;2022-08-18T09:36:52;31.20;73.70
12604;DHT22;6367;52.508;13.284;2022-08-18T09:39:32;31.40;72.90
12604;DHT22;6367;52.508;13.284;2022-08-18T09:42:35;31.50;72.60
12604;DHT22;6367;52.508;13.284;2022-08-18T09:45:38;31.70;73.50
12604;DHT22;6367;52.508;13.284;2022-08-18T09:52:53;31.50;71.40
12604;DHT22;6367;52.508;13.284;2022-08-18T10:00:40;31.80;70.50
12604;DHT22;6367;52.508;13.284;2022-08-18T10:03:18;31.90;70.80
12604;DHT22;6367;52.508;13.284;2022-08-18T10:06:05;31.90;70.60
12604;DHT22;6367;52.508;13.284;2022-08-18T10:08:47;31.90;70.30
12604;DHT22;6367;52.508;13.284;2022-08-18T10:11:36;32.10;70.10
12604;DHT22;6367;52.508;13.284;2022-08-18T10:14:39;32.20;70.10
12604;DHT22;6367;52.508;13.284;2022-08-18T10:20:03;32.30;69.80
12604;DHT22;6367;52.508;13.284;2022-08-18T10:22:40;32.20;70.10
12604;DHT22;6367;52.508;13.284;2022-08-18T10:25:08;32.20;70.00
12604;DHT22;6367;52.508;13.284;2022-08-18T10:33:08;32.30;67.70
12604;DHT22;6367;52.508;13.284;2022-08-18T10:38:15;32.10;68.80
12604;DHT22;6367;52.508;13.284;2022-08-18T10:40:53;32.10;68.10
12604;DHT22;6367;52.508;13.284;2022-08-18T10:43:41;32.20;68.40
12604;DHT22;6367;52.508;13.284;2022-08-18T10:46:22;32.40;68.70
12604;DHT22;6367;52.508;13.284;2022-08-18T10:51:46;32.60;67.70
12604;DHT22;6367;52.508;13.284;2022-08-18T10:54:35;32.70;67.60
12604;DHT22;6367;52.508;13.284;2022-08-18T10:57:39;32.90;66.20
12604;DHT22;6367;52.508;13.284;2022-08-18T11:00:06;32.80;66.80
12604;DHT22;6367;52.508;13.284;2022-08-18T11:05:25;33.00;66.20
12604;DHT22;6367;52.508;13.284;2022-08-18T11:08:01;33.10;65.70
12604;DHT22;6367;52.508;13.284;2022-08-18T11:10:39;33.30;65.10
12604;DHT22;6367;52.508;13.284;2022-08-18T11:13:25;33.00;65.70
12604;DHT22;6367;52.508;13.284;2022-08-18T11:18:41;33.60;65.10
12604;DHT22;6367;52.508;13.284;2022-08-18T11:24:14;33.70;65.00
12604;DHT22;6367;52.508;13.284;2022-08-18T11:26:46;33.70;65.60
12604;DHT22;6367;52.508;13.284;2022-08-18T11:29:22;33.80;65.60
12604;DHT22;6367;52.508;13.284;2022-08-18T11:31:55;33.90;66.20
12604;DHT22;6367;52.508;13.284;2022-08-18T11:34:28;34.00;63.80
12604;DHT22;6367;52.508;13.284;2022-08-18T11:36:57;34.10;64.10
12604;DHT22;6367;52.508;13.284;2022-08-18T11:39:24;34.20;64.10
12604;DHT22;6367;52.508;13.284;2022-08-18T11:41:49;34.30;64.30
12604;DHT22;6367;52.508;13.284;2022-08-18T11:44:19;34.50;63.50
12604;DHT22;6367;52.508;13.284;2022-08-18T11:46:46;34.50;63.10
12604;DHT22;6367;52.508;13.284;2022-08-18T11:49:18;34.70;63.40
12604;DHT22;6367;52.508;13.284;2022-08-18T11:51:57;34.70;62.70
12604;DHT22;6367;52.508;13.284;2022-08-18T11:54:34;34.90;61.70
12604;DHT22;6367;52.508;13.284;2022-08-18T11:57:39;34.90;61.80
12604;DHT22;6367;52.508;13.284;2022-08-18T12:03:26;35.20;61.80
12604;DHT22;6367;52.508;13.284;2022-08-18T12:06:07;35.20;61.40
12604;DHT22;6367;52.508;13.284;2022-08-18T12:08:46;35.20;60.70
12604;DHT22;6367;52.508;13.284;2022-08-18T12:11:17;35.30;60.30
12604;DHT22;6367;52.508;13.284;2022-08-18T12:13:44;35.20;60.40
12604;DHT22;6367;52.508;13.284;2022-08-18T12:16:24;35.10;60.40
12604;DHT22;6367;52.508;13.284;2022-08-18T12:18:54;35.00;60.60
12604;DHT22;6367;52.508;13.284;2022-08-18T12:21:20;34.90;60.40
12604;DHT22;6367;52.508;13.284;2022-08-18T12:23:47;34.60;60.60
12604;DHT22;6367;52.508;13.284;2022-08-18T12:26:13;34.50;60.50
12604;DHT22;6367;52.508;13.284;2022-08-18T12:28:39;34.50;61.00
12604;DHT22;6367;52.508;13.284;2022-08-18T12:31:06;34.50;60.90
12604;DHT22;6367;52.508;13.284;2022-08-18T12:33:33;34.50;61.00
12604;DHT22;6367;52.508;13.284;2022-08-18T12:36:00;34.60;60.50
12604;DHT22;6367;52.508;13.284;2022-08-18T12:38:25;34.60;60.10
12604;DHT22;6367;52.508;13.284;2022-08-18T12:40:51;34.60;59.90
12604;DHT22;6367;52.508;13.284;2022-08-18T12:43:17;34.60;59.70
12604;DHT22;6367;52.508;13.284;2022-08-18T12:45:43;34.70;59.60
12604;DHT22;6367;52.508;13.284;2022-08-18T12:48:08;34.60;59.40
12604;DHT22;6367;52.508;13.284;2022-08-18T12:50:36;34.60;59.60
12604;DHT22;6367;52.508;13.284;2022-08-18T12:53:02;34.80;59.20
12604;DHT22;6367;52.508;13.284;2022-08-18T12:55:33;34.80;59.40
12604;DHT22;6367;52.508;13.284;2022-08-18T12:57:59;35.00;59.40
12604;DHT22;6367;52.508;13.284;2022-08-18T13:00:25;35.10;59.10
12604;DHT22;6367;52.508;13.284;2022-08-18T13:02:50;35.20;58.20
12604;DHT22;6367;52.508;13.284;2022-08-18T13:05:16;35.30;57.90
12604;DHT22;6367;52.508;13.284;2022-08-18T13:07:44;35.30;58.00
12604;DHT22;6367;52.508;13.284;2022-08-18T13:10:09;35.40;57.90
12604;DHT22;6367;52.508;13.284;2022-08-18T13:12:36;35.40;58.10
12604;DHT22;6367;52.508;13.284;2022-08-18T13:15:02;35.40;58.10
12604;DHT22;6367;52.508;13.284;2022-08-18T13:17:27;35.30;58.00
12604;DHT22;6367;52.508;13.284;2022-08-18T13:19:53;35.30;58.30
12604;DHT22;6367;52.508;13.284;2022-08-18T13:22:19;35.30;58.70
12604;DHT22;6367;52.508;13.284;2022-08-18T13:24:44;35.30;58.30
12604;DHT22;6367;52.508;13.284;2022-08-18T13:27:10;35.20;58.40
12604;DHT22;6367;52.508;13.284;2022-08-18T13:29:36;35.20;58.20
12604;DHT22;6367;52.508;13.284;2022-08-18T13:32:02;35.20;57.40
12604;DHT22;6367;52.508;13.284;2022-08-18T13:34:33;35.20;57.40
12604;DHT22;6367;52.508;13.284;2022-08-18T13:36:58;35.20;57.20
12604;DHT22;6367;52.508;13.284;2022-08-18T13:39:24;35.20;56.60
12604;DHT22;6367;52.508;13.284;2022-08-18T13:41:52;35.30;56.20
12604;DHT22;6367;52.508;13.284;2022-08-18T13:44:18;35.30;55.60
12604;DHT22;6367;52.508;13.284;2022-08-18T13:46:47;35.40;55.30
12604;DHT22;6367;52.508;13.284;2022-08-18T13:49:18;35.40;55.30
12604;DHT22;6367;52.508;13.284;2022-08-18T13:51:45;35.40;54.80
12604;DHT22;6367;52.508;13.284;2022-08-18T13:54:22;35.30;54.70
12604;DHT22;6367;52.508;13.284;2022-08-18T13:56:48;35.30;54.60
12604;DHT22;6367;52.508;13.284;2022-08-18T13:59:15;35.20;54.70
12604;DHT22;6367;52.508;13.284;2022-08-18T14:01:41;35.10;54.60
12604;DHT22;6367;52.508;13.284;2022-08-18T14:04:07;35.10;54.30
12604;DHT22;6367;52.508;13.284;2022-08-18T14:06:33;35.10;54.60
12604;DHT22;6367;52.508;13.284;2022-08-18T14:08:59;35.10;54.00
12604;DHT22;6367;52.508;13.284;2022-08-18T14:11:27;35.00;54.40
12604;DHT22;6367;52.508;13.284;2022-08-18T14:13:54;35.30;54.20
12604;DHT22;6367;52.508;13.284;2022-08-18T14:16:24;35.10;54.40
12604;DHT22;6367;52.508;13.284;2022-08-18T14:18:49;35.10;54.90
12604;DHT22;6367;52.508;13.284;2022-08-18T14:21:52;35.10;55.70
12604;DHT22;6367;52.508;13.284;2022-08-18T14:24:39;35.10;56.20
12604;DHT22;6367;52.508;13.284;2022-08-18T14:27:31;35.10;57.00
12604;DHT22;6367;52.508;13.284;2022-08-18T14:29:59;35.20;57.30
12604;DHT22;6367;52.508;13.284;2022-08-18T14:32:26;35.20;57.00
12604;DHT22;6367;52.508;13.284;2022-08-18T14:34:55;35.60;57.20
12604;DHT22;6367;52.508;13.284;2022-08-18T14:37:20;35.10;56.80
12604;DHT22;6367;52.508;13.284;2022-08-18T14:39:46;35.10;57.20
12604;DHT22;6367;52.508;13.284;2022-08-18T14:42:14;35.10;57.60
12604;DHT22;6367;52.508;13.284;2022-08-18T14:44:40;35.10;57.70
12604;DHT22;6367;52.508;13.284;2022-08-18T14:47:05;35.00;57.80
12604;DHT22;6367;52.508;13.284;2022-08-18T14:49:31;34.90;57.50
12604;DHT22;6367;52.508;13.284;2022-08-18T14:51:58;34.80;57.80
12604;DHT22;6367;52.508;13.284;2022-08-18T14:54:24;34.70;58.10
12604;DHT22;6367;52.508;13.284;2022-08-18T14:56:49;34.60;58.30
12604;DHT22;6367;52.508;13.284;2022-08-18T14:59:15;34.60;58.50
12604;DHT22;6367;52.508;13.284;2022-08-18T15:01:41;34.50;58.40
12604;DHT22;6367;52.508;13.284;2022-08-18T15:04:08;34.50;58.50
12604;DHT22;6367;52.508;13.284;2022-08-18T15:06:36;34.40;58.40
12604;DHT22;6367;52.508;13.284;2022-08-18T15:09:02;34.30;58.70
12604;DHT22;6367;52.508;13.284;2022-08-18T15:11:27;34.30;58.80
12604;DHT22;6367;52.508;13.284;2022-08-18T15:13:53;34.30;58.50
12604;DHT22;6367;52.508;13.284;2022-08-18T15:16:19;34.30;58.60
12604;DHT22;6367;52.508;13.284;2022-08-18T15:18:46;34.20;58.50
12604;DHT22;6367;52.508;13.284;2022-08-18T15:21:12;34.20;58.90
12604;DHT22;6367;52.508;13.284;2022-08-18T15:23:56;34.10;59.10
12604;DHT22;6367;52.508;13.284;2022-08-18T15:26:40;34.00;59.20
12604;DHT22;6367;52.508;13.284;2022-08-18T15:29:07;34.00;59.10
12604;DHT22;6367;52.508;13.284;2022-08-18T15:31:33;33.80;58.80
12604;DHT22;6367;52.508;13.284;2022-08-18T15:33:59;33.70;58.70
12604;DHT22;6367;52.508;13.284;2022-08-18T15:36:25;33.60;59.00
12604;DHT22;6367;52.508;13.284;2022-08-18T15:38:50;33.50;59.00
12604;DHT22;6367;52.508;13.284;2022-08-18T15:41:44;33.50;58.90
12604;DHT22;6367;52.508;13.284;2022-08-18T15:44:13;33.40;59.00
12604;DHT22;6367;52.508;13.284;2022-08-18T15:46:39;33.30;59.00
12604;DHT22;6367;52.508;13.284;2022-08-18T15:49:05;33.30;58.80
12604;DHT22;6367;52.508;13.284;2022-08-18T15:51:34;33.30;58.70
12604;DHT22;6367;52.508;13.284;2022-08-18T15:54:01;33.20;58.80
12604;DHT22;6367;52.508;13.284;2022-08-18T15:56:27;33.20;58.50
12604;DHT22;6367;52.508;13.284;2022-08-18T15:58:54;33.10;58.90
12604;DHT22;6367;52.508;13.284;2022-08-18T16:01:21;33.10;59.10
12604;DHT22;6367;52.508;13.284;2022-08-18T16:03:48;33.10;59.10
12604;DHT22;6367;52.508;13.284;2022-08-18T16:06:17;33.00;59.50
12604;DHT22;6367;52.508;13.284;2022-08-18T16:08:43;32.90;59.00
12604;DHT22;6367;52.508;13.284;2022-08-18T16:11:10;32.90;59.70
12604;DHT22;6367;52.508;13.284;2022-08-18T16:13:36;32.90;59.30
12604;DHT22;6367;52.508;13.284;2022-08-18T16:16:20;32.80;58.80
12604;DHT22;6367;52.508;13.284;2022-08-18T16:18:47;32.80;58.90
12604;DHT22;6367;52.508;13.284;2022-08-18T16:21:20;32.80;59.80
12604;DHT22;6367;52.508;13.284;2022-08-18T16:23:49;32.80;59.20
12604;DHT22;6367;52.508;13.284;2022-08-18T16:26:17;32.70;59.10
12604;DHT22;6367;52.508;13.284;2022-08-18T16:28:45;32.70;58.50
12604;DHT22;6367;52.508;13.284;2022-08-18T16:31:13;32.60;59.10
12604;DHT22;6367;52.508;13.284;2022-08-18T16:33:44;32.60;59.40
12604;DHT22;6367;52.508;13.284;2022-08-18T16:36:13;32.60;58.80
12604;DHT22;6367;52.508;13.284;2022-08-18T16:38:39;32.50;59.00
12604;DHT22;6367;52.508;13.284;2022-08-18T16:41:09;32.50;58.80
12604;DHT22;6367;52.508;13.284;2022-08-18T16:43:36;32.40;59.80
12604;DHT22;6367;52.508;13.284;2022-08-18T16:46:03;32.00;62.20
12604;DHT22;6367;52.508;13.284;2022-08-18T16:48:33;31.70;63.60
12604;DHT22;6367;52.508;13.284;2022-08-18T16:50:59;31.40;64.90
12604;DHT22;6367;52.508;13.284;2022-08-18T16:53:24;31.10;65.80
12604;DHT22;6367;52.508;13.284;2022-08-18T16:55:50;31.10;66.10
12604;DHT22;6367;52.508;13.284;2022-08-18T16:58:15;30.90;66.30
12604;DHT22;6367;52.508;13.284;2022-08-18T17:01:00;31.10;67.40
12604;DHT22;6367;52.508;13.284;2022-08-18T17:03:44;30.70;68.10
12604;DHT22;6367;52.508;13.284;2022-08-18T17:06:29;30.70;68.70
12604;DHT22;6367;52.508;13.284;2022-08-18T17:08:55;30.50;69.70
12604;DHT22;6367;52.508;13.284;2022-08-18T17:11:22;30.20;71.20
12604;DHT22;6367;52.508;13.284;2022-08-18T17:13:50;30.00;73.70
12604;DHT22;6367;52.508;13.284;2022-08-18T17:16:17;29.80;74.60
12604;DHT22;6367;52.508;13.284;2022-08-18T17:18:43;29.70;76.00
12604;DHT22;6367;52.508;13.284;2022-08-18T17:21:12;29.60;77.10
12604;DHT22;6367;52.508;13.284;2022-08-18T17:23:38;29.50;77.60
12604;DHT22;6367;52.508;13.284;2022-08-18T17:26:25;29.40;78.10
12604;DHT22;6367;52.508;13.284;2022-08-18T17:29:09;29.40;78.80
12604;DHT22;6367;52.508;13.284;2022-08-18T17:31:43;29.30;79.70
12604;DHT22;6367;52.508;13.284;2022-08-18T17:34:12;29.10;80.40
12604;DHT22;6367;52.508;13.284;2022-08-18T17:36:46;29.10;80.60
12604;DHT22;6367;52.508;13.284;2022-08-18T17:39:14;29.00;81.10
12604;DHT22;6367;52.508;13.284;2022-08-18T17:41:41;28.80;81.40